Time;durP1;ratioP1;P1;durP2;ratioP2;P2;SDS_P1;SDS_P2;PMS_P1;PMS_P2;Temp;Humidity;BMP_temperature;BMP_pressure;BME280_temperature;BME280_humidity;BME280_pressure;Samples;Min_cycle;Max_cycle;Signal;HPM_P1;HPM_P2
2023/12/06 00:12:04;;;;;;;0.77;0.77;;;-10.30;99.90;;;;;;1921209;74;27553;-88
2023/12/06 00:14:52;;;;;;;0.70;0.70;;;-10.50;99.90;;;;;;1880682;75;25588;-88
2023/12/06 00:17:41;;;;;;;1.03;1.03;;;-10.50;99.90;;;;;;1875802;75;25578;-89
2023/12/06 00:20:30;;;;;;;1.63;1.23;;;-10.60;99.90;;;;;;1869457;75;25698;-88
2023/12/06 00:23:19;;;;;;;1.03;0.63;;;-10.50;99.90;;;;;;1867679;75;25851;-89
2023/12/06 00:26:08;;;;;;;1.23;0.50;;;-10.40;99.90;;;;;;1854508;75;25585;-88
2023/12/06 00:28:57;;;;;;;0.53;0.53;;;-10.40;99.90;;;;;;1871679;75;25699;-89
2023/12/06 00:34:37;;;;;;;3.20;0.90;;;-10.40;99.90;;;;;;1948357;72;27571;-88
2023/12/06 00:37:31;;;;;;;1.07;0.80;;;-10.30;99.90;;;;;;1938656;73;25692;-88
2023/12/06 00:44:09;;;;;;;6.93;1.50;;;-10.40;99.90;;;;;;1951125;71;26705;-86
2023/12/06 00:46:59;;;;;;;1.53;0.70;;;-10.30;99.90;;;;;;2013376;70;25562;-86
2023/12/06 00:50:23;;;;;;;1.40;1.00;;;-10.30;99.90;;;;;;2009455;70;25569;-88
2023/12/06 00:56:05;;;;;;;1.37;1.03;;;-10.30;99.90;;;;;;1951351;72;27548;-88
2023/12/06 00:58:54;;;;;;;1.63;1.10;;;-10.20;99.90;;;;;;1929592;73;25636;-87
2023/12/06 01:04:27;;;;;;;2.10;1.17;;;-10.20;99.90;;;;;;1926541;72;27739;-88
2023/12/06 01:07:15;;;;;;;1.23;1.00;;;-10.30;99.90;;;;;;1893600;75;25686;-88
2023/12/06 01:10:08;;;;;;;1.27;1.10;;;-10.20;99.90;;;;;;1832031;77;25563;-87
2023/12/06 01:12:56;;;;;;;2.23;1.20;;;-10.10;99.90;;;;;;1839793;76;26215;-87
2023/12/06 01:15:45;;;;;;;0.60;0.60;;;-10.20;99.90;;;;;;1840738;76;25639;-87
2023/12/06 01:18:34;;;;;;;1.30;1.00;;;-10.30;99.90;;;;;;1840046;76;26043;-87
2023/12/06 01:21:25;;;;;;;2.07;1.00;;;-10.30;99.90;;;;;;1842736;76;25609;-88
2023/12/06 01:24:13;;;;;;;0.97;0.90;;;-10.30;99.90;;;;;;1867700;76;25768;-88
2023/12/06 01:27:02;;;;;;;1.80;1.20;;;-10.30;99.90;;;;;;1915289;73;25630;-88
2023/12/06 01:29:51;;;;;;;0.63;0.63;;;-10.20;99.90;;;;;;1874323;76;25724;-88
2023/12/06 01:32:40;;;;;;;1.17;1.07;;;-10.10;99.90;;;;;;1924436;73;25596;-88
2023/12/06 01:35:29;;;;;;;0.73;0.73;;;-10.10;99.90;;;;;;1874549;75;26134;-88
2023/12/06 01:38:18;;;;;;;1.47;1.10;;;-10.10;99.90;;;;;;1835319;76;25685;-88
2023/12/06 01:41:09;;;;;;;0.80;0.73;;;-10.10;99.90;;;;;;1921285;73;26155;-88
2023/12/06 01:44:02;;;;;;;0.70;0.67;;;-10.10;99.90;;;;;;1911700;73;25611;-88
2023/12/06 01:50:28;;;;;;;2.60;0.70;;;-10.20;99.90;;;;;;1811146;78;25559;-88
2023/12/06 01:56:05;;;;;;;1.60;1.23;;;-10.10;99.90;;;;;;1955496;72;27054;-88
2023/12/06 01:58:55;;;;;;;1.30;1.00;;;-10.00;99.90;;;;;;1899549;75;25645;-88
2023/12/06 02:01:44;;;;;;;1.07;0.93;;;-10.00;99.90;;;;;;1895336;75;25635;-87
2023/12/06 02:04:34;;;;;;;2.80;1.20;;;-10.10;99.90;;;;;;1892436;75;25693;-87
2023/12/06 02:07:23;;;;;;;0.70;0.60;;;-10.10;99.90;;;;;;1887474;73;25976;-88
2023/12/06 02:10:13;;;;;;;1.37;0.80;;;-10.20;99.90;;;;;;1901739;73;25565;-88
2023/12/06 02:13:02;;;;;;;1.53;1.10;;;-10.20;99.90;;;;;;1905669;73;25729;-88
2023/12/06 02:20:41;;;;;;;4.13;1.83;;;-10.10;99.90;;;;;;1995647;71;28365;-88
2023/12/06 02:23:33;;;;;;;6.13;1.20;;;-10.00;99.90;;;;;;2011030;70;25700;-88
2023/12/06 02:26:21;;;;;;;1.40;1.23;;;-10.10;99.90;;;;;;2020337;70;25548;-88
2023/12/06 02:29:10;;;;;;;1.33;1.00;;;-10.20;99.90;;;;;;2002198;70;26039;-88
2023/12/06 02:31:58;;;;;;;4.83;0.73;;;-10.40;99.90;;;;;;2018693;70;25651;-88
2023/12/06 02:37:36;;;;;;;1.40;0.77;;;-10.50;99.90;;;;;;1961286;72;27150;-87
2023/12/06 02:40:27;;;;;;;2.50;1.03;;;-10.50;99.90;;;;;;1921268;73;25534;-87
2023/12/06 02:43:16;;;;;;;1.03;0.50;;;-10.40;99.90;;;;;;1916286;75;25475;-88
2023/12/06 02:46:06;;;;;;;1.43;1.00;;;-10.50;99.90;;;;;;1899394;75;26225;-88
2023/12/06 03:05:41;;;;;;;2.43;1.33;;;-10.50;99.90;;;;;;2042858;69;26988;-88
2023/12/06 03:08:30;;;;;;;2.67;1.40;;;-10.50;99.90;;;;;;2013771;70;25647;-88
2023/12/06 03:11:19;;;;;;;1.73;1.27;;;-10.40;99.90;;;;;;2003097;70;25638;-88
2023/12/06 03:14:12;;;;;;;1.80;1.10;;;-10.50;99.90;;;;;;1994633;71;25688;-88
2023/12/06 03:17:00;;;;;;;1.63;1.00;;;-10.30;99.90;;;;;;1995189;71;25528;-87
2023/12/06 04:12:47;;;;;;;2.13;1.33;;;-10.30;99.90;;;;;;1937117;72;27558;-88
2023/12/06 04:15:39;;;;;;;0.60;0.60;;;-10.40;99.90;;;;;;1928127;73;25645;-88
2023/12/06 04:18:28;;;;;;;1.57;1.17;;;-10.50;99.90;;;;;;1948328;72;25611;-88
2023/12/06 04:21:17;;;;;;;1.73;1.30;;;-10.40;99.90;;;;;;1953481;72;25652;-88
2023/12/06 04:32:27;;;;;;;3.60;1.73;;;-10.30;99.90;;;;;;1987799;71;26997;-88
2023/12/06 04:35:18;;;;;;;3.40;0.90;;;-10.20;99.90;;;;;;1933595;73;25786;-88
2023/12/06 04:38:07;;;;;;;1.50;1.07;;;-10.20;99.90;;;;;;1940786;73;25687;-88
2023/12/06 04:43:41;;;;;;;0.80;0.80;;;-10.20;99.90;;;;;;1880338;74;27166;-88
2023/12/06 04:46:29;;;;;;;1.07;1.00;;;-10.10;99.90;;;;;;1887431;75;25727;-88
2023/12/06 04:49:18;;;;;;;2.80;0.93;;;-10.10;99.90;;;;;;1880448;75;25566;-87
2023/12/06 04:52:07;;;;;;;1.00;0.90;;;-10.10;99.90;;;;;;1885792;75;25679;-88
2023/12/06 04:54:56;;;;;;;1.50;0.90;;;-10.00;99.90;;;;;;1879676;75;25570;-87
2023/12/06 04:57:45;;;;;;;1.97;0.90;;;-10.00;99.90;;;;;;1883674;75;25635;-88
2023/12/06 05:00:34;;;;;;;1.43;0.87;;;-10.00;99.90;;;;;;1884043;75;25733;-88
2023/12/06 05:03:22;;;;;;;1.03;0.90;;;-10.10;99.90;;;;;;1882798;75;25613;-88
2023/12/06 05:06:11;;;;;;;1.03;0.63;;;-10.00;99.90;;;;;;1892734;75;25594;-88
2023/12/06 05:08:59;;;;;;;1.57;0.97;;;-10.00;99.90;;;;;;1889588;75;25711;-88
2023/12/06 05:55:24;;;;;;;0.60;0.60;;;-9.70;99.90;;;;;;1934583;72;27043;-89
2023/12/06 05:58:17;;;;;;;2.53;1.20;;;-9.70;99.90;;;;;;1841361;76;26070;-88
2023/12/06 06:01:07;;;;;;;1.63;1.00;;;-9.70;99.90;;;;;;1902831;75;26150;-88
2023/12/06 06:03:58;;;;;;;4.90;2.03;;;-9.80;99.90;;;;;;1892370;75;25579;-89
2023/12/06 06:06:48;;;;;;;0.97;0.73;;;-9.80;99.90;;;;;;1900232;75;25704;-90
2023/12/06 06:09:36;;;;;;;2.47;1.63;;;-9.70;99.90;;;;;;1878028;74;25701;-89
2023/12/06 06:15:18;;;;;;;1.83;1.53;;;-10.00;99.90;;;;;;1947611;72;27031;-89
2023/12/06 06:18:09;;;;;;;3.07;1.30;;;-9.90;99.90;;;;;;1927042;73;25580;-88
2023/12/06 06:20:58;;;;;;;1.93;1.60;;;-9.90;99.90;;;;;;1917780;73;25641;-89
2023/12/06 06:26:33;;;;;;;1.47;1.03;;;-10.00;99.90;;;;;;1945728;72;27096;-88
2023/12/06 06:29:23;;;;;;;1.70;1.17;;;-10.00;99.90;;;;;;1900519;73;25768;-88
2023/12/06 06:34:53;;;;;;;2.90;1.73;;;-9.80;99.90;;;;;;1900121;74;27153;-88
2023/12/06 06:37:42;;;;;;;2.20;1.33;;;-9.80;99.90;;;;;;1842001;76;26093;-88
2023/12/06 06:40:31;;;;;;;2.50;1.40;;;-9.90;99.90;;;;;;1842973;77;26253;-88
2023/12/06 06:43:19;;;;;;;1.60;1.50;;;-9.90;99.90;;;;;;1847429;76;25687;-88
2023/12/06 06:46:09;;;;;;;2.53;1.57;;;-9.90;99.90;;;;;;1844819;76;25994;-88
2023/12/06 06:48:58;;;;;;;2.70;1.67;;;-9.90;99.90;;;;;;1856468;76;25670;-88
2023/12/06 06:51:47;;;;;;;4.97;2.20;;;-9.90;99.90;;;;;;1848797;76;25763;-88
2023/12/06 06:54:37;;;;;;;6.00;2.47;;;-9.90;99.90;;;;;;1854120;76;26138;-88
2023/12/06 06:57:25;;;;;;;4.03;2.10;;;-9.80;99.90;;;;;;1862078;76;25647;-88
2023/12/06 07:00:15;;;;;;;3.67;1.37;;;-9.90;99.90;;;;;;1865208;76;25448;-88
2023/12/06 07:03:03;;;;;;;3.47;1.87;;;-10.00;99.90;;;;;;1867465;76;25997;-88
2023/12/06 07:08:44;;;;;;;2.50;1.60;;;-10.00;99.90;;;;;;1957039;72;27140;-88
2023/12/06 07:11:35;;;;;;;2.30;1.37;;;-10.00;99.90;;;;;;1929252;73;25677;-88
2023/12/06 07:14:24;;;;;;;5.93;2.27;;;-10.00;99.90;;;;;;1920226;73;26218;-87
2023/12/06 07:17:13;;;;;;;1.90;1.70;;;-10.10;99.90;;;;;;1918265;73;25637;-88
2023/12/06 07:20:02;;;;;;;4.00;1.90;;;-10.10;99.90;;;;;;1922233;73;25633;-88
2023/12/06 07:22:50;;;;;;;3.37;1.93;;;-10.00;99.90;;;;;;1936933;73;25680;-88
2023/12/06 07:25:39;;;;;;;2.63;1.53;;;-10.00;99.90;;;;;;1919697;73;25720;-88
2023/12/06 07:31:24;;;;;;;4.30;1.90;;;-9.80;99.90;;;;;;1964392;72;27484;-88
2023/12/06 07:34:16;;;;;;;8.37;1.57;;;-9.90;99.90;;;;;;1924315;73;25577;-88
2023/12/06 07:37:04;;;;;;;2.97;1.67;;;-10.00;99.90;;;;;;1925971;73;25759;-88
2023/12/06 07:39:55;;;;;;;1.77;1.57;;;-10.00;99.90;;;;;;1932175;73;26068;-87
2023/12/06 07:42:44;;;;;;;4.63;1.60;;;-9.90;99.90;;;;;;1948205;73;26157;-87
2023/12/06 07:45:32;;;;;;;2.77;1.27;;;-9.90;99.90;;;;;;1924286;73;25631;-88
2023/12/06 07:48:21;;;;;;;3.57;1.80;;;-9.90;99.90;;;;;;1931700;73;25762;-88
2023/12/06 07:53:53;;;;;;;2.30;1.80;;;-9.60;99.90;;;;;;1945249;72;27038;-88
2023/12/06 07:56:42;;;;;;;2.47;1.80;;;-9.40;99.90;;;;;;1884803;75;25710;-88
2023/12/06 07:59:31;;;;;;;3.23;1.40;;;-9.40;99.90;;;;;;1884939;75;25832;-88
2023/12/06 08:02:19;;;;;;;1.63;1.23;;;-9.50;99.90;;;;;;1890254;75;25779;-88
2023/12/06 08:05:09;;;;;;;2.07;1.47;;;-9.40;99.90;;;;;;1890707;75;25896;-88
2023/12/06 08:07:57;;;;;;;3.00;1.60;;;-9.40;99.90;;;;;;1889843;75;26119;-88
2023/12/06 08:10:46;;;;;;;3.63;2.33;;;-9.50;99.90;;;;;;1896670;75;25779;-88
2023/12/06 08:13:35;;;;;;;4.17;2.00;;;-9.50;99.90;;;;;;1897702;75;25738;-88
2023/12/06 08:16:24;;;;;;;2.20;1.60;;;-9.50;99.90;;;;;;1905876;75;25862;-88
2023/12/06 08:50:56;;;;;;;6.40;2.60;;;-8.70;99.90;;;;;;1991816;71;27560;-88
2023/12/06 08:53:46;;;;;;;3.90;2.13;;;-8.70;99.90;;;;;;1974007;72;26854;-88
2023/12/06 08:56:36;;;;;;;7.30;2.43;;;-8.60;99.90;;;;;;2063880;69;26469;-87
2023/12/06 08:59:25;;;;;;;3.63;2.30;;;-8.50;99.90;;;;;;2054714;69;25901;-87
2023/12/06 09:02:16;;;;;;;3.23;1.97;;;-8.40;99.90;;;;;;2048549;69;25855;-87
2023/12/06 09:05:06;;;;;;;1.73;1.17;;;-8.30;99.90;;;;;;2032336;69;25882;-87
2023/12/06 09:07:56;;;;;;;7.63;1.80;;;-8.50;99.90;;;;;;2063207;69;26395;-87
2023/12/06 09:15:08;;;;;;;4.30;2.20;;;-8.50;99.90;;;;;;1984192;71;26340;-88
2023/12/06 09:18:19;;;;;;;10.27;2.10;;;-8.30;99.90;;;;;;1969655;72;26393;-89
2023/12/06 09:21:08;;;;;;;4.73;2.10;;;-8.10;99.90;;;;;;2054730;69;25865;-88
2023/12/06 09:24:04;;;;;;;1.47;1.00;;;-8.10;99.90;;;;;;2046402;69;25903;-88
2023/12/06 09:26:53;;;;;;;3.77;1.83;;;-8.10;99.90;;;;;;2033922;69;26313;-88
2023/12/06 09:29:45;;;;;;;6.67;2.03;;;-8.20;99.90;;;;;;2030800;69;25878;-88
2023/12/06 09:32:33;;;;;;;2.97;1.53;;;-8.30;99.90;;;;;;2042324;69;26312;-88
2023/12/06 09:35:33;;;;;;;3.60;1.70;;;-8.30;99.90;;;;;;2041863;69;25859;-88
2023/12/06 09:38:23;;;;;;;3.17;2.07;;;-8.30;99.90;;;;;;2027086;70;25897;-88
2023/12/06 09:43:55;;;;;;;2.23;1.60;;;-8.20;99.90;;;;;;1966071;71;26995;-88
2023/12/06 09:47:21;;;;;;;2.10;1.40;;;-8.10;99.90;;;;;;1941479;73;25965;-88
2023/12/06 09:50:10;;;;;;;6.23;2.00;;;-8.00;99.90;;;;;;1926451;73;25936;-88
2023/12/06 09:52:59;;;;;;;1.10;0.90;;;-8.00;99.90;;;;;;1896030;75;27379;-88
2023/12/06 09:56:02;;;;;;;1.03;0.87;;;-8.00;99.90;;;;;;1925211;73;25864;-88
2023/12/06 09:59:09;;;;;;;1.77;1.10;;;-8.10;99.90;;;;;;1940511;73;25870;-89
2023/12/06 10:02:18;;;;;;;1.87;1.27;;;-8.10;99.90;;;;;;1942443;73;25884;-88
2023/12/06 10:05:10;;;;;;;3.87;1.40;;;-8.20;99.90;;;;;;1923719;73;25949;-88
2023/12/06 10:08:03;;;;;;;2.40;1.63;;;-8.10;99.90;;;;;;1933446;73;26436;-88
2023/12/06 10:11:19;;;;;;;3.73;1.97;;;-8.10;99.90;;;;;;1928550;73;25921;-89
2023/12/06 10:31:54;;;;;;;5.33;2.20;;;-8.00;99.90;;;;;;1976410;71;27555;-89
2023/12/06 10:34:43;;;;;;;4.07;2.20;;;-7.90;99.90;;;;;;1944128;73;25942;-89
2023/12/06 10:41:54;;;;;;;5.20;1.77;;;-7.80;99.90;;;;;;1919655;73;25961;-89
2023/12/06 10:44:49;;;;;;;0.87;0.80;;;-7.70;99.90;;;;;;1954385;72;25959;-90
2023/12/06 10:48:06;;;;;;;2.37;1.17;;;-7.60;99.90;;;;;;1911717;73;25944;-90
2023/12/06 10:50:58;;;;;;;2.13;1.47;;;-7.50;99.90;;;;;;1898149;73;26062;-89
2023/12/06 10:56:43;;;;;;;5.93;2.40;;;-7.40;99.90;;;;;;1958920;72;27124;-89
2023/12/06 10:59:33;;;;;;;5.50;1.83;;;-7.40;99.90;;;;;;1936159;73;25940;-88
2023/12/06 11:02:22;;;;;;;4.43;2.37;;;-7.40;99.90;;;;;;1949557;73;25977;-88
2023/12/06 11:05:12;;;;;;;2.10;1.53;;;-7.30;99.90;;;;;;1922419;73;26009;-86
2023/12/06 11:08:29;;;;;;;4.93;2.13;;;-7.40;99.90;;;;;;1927657;73;25939;-88
2023/12/06 11:11:33;;;;;;;6.50;2.40;;;-7.20;99.90;;;;;;1933365;73;25962;-88
2023/12/06 11:14:32;;;;;;;4.53;2.37;;;-7.20;99.90;;;;;;1917408;73;25953;-88
2023/12/06 11:17:30;;;;;;;4.47;2.30;;;-7.10;99.90;;;;;;1934308;73;25984;-89
2023/12/06 11:23:00;;;;;;;7.63;3.27;;;-7.00;99.90;;;;;;1932459;72;27085;-88
2023/12/06 11:28:46;;;;;;;4.03;2.40;;;-7.00;99.90;;;;;;1945290;72;27028;-89
2023/12/06 11:31:38;;;;;;;3.43;2.10;;;-6.90;99.90;;;;;;1922375;73;26005;-89
2023/12/06 11:34:36;;;;;;;2.17;1.43;;;-6.80;99.90;;;;;;1930820;73;25863;-89
2023/12/06 11:41:16;;;;;;;5.43;2.30;;;-6.70;99.90;;;;;;1982482;71;26344;-89
2023/12/06 11:44:07;;;;;;;6.37;2.53;;;-6.80;99.90;;;;;;1953124;72;26030;-89
2023/12/06 11:46:57;;;;;;;3.23;1.83;;;-6.70;99.90;;;;;;1999764;70;25285;-89
2023/12/06 11:53:42;;;;;;;5.77;2.70;;;-6.70;99.90;;;;;;1997216;71;28612;-89
2023/12/06 11:56:30;;;;;;;3.40;2.30;;;-6.70;99.90;;;;;;2022677;70;25953;-89
2023/12/06 11:59:27;;;;;;;3.97;2.20;;;-6.60;99.90;;;;;;2023622;70;25652;-89
2023/12/06 12:02:17;;;;;;;3.17;2.23;;;-6.50;99.90;;;;;;2016793;70;25985;-89
2023/12/06 12:05:08;;;;;;;13.37;6.47;;;-6.40;99.90;;;;;;2020557;69;25925;-89
2023/12/06 12:08:00;;;;;;;7.33;3.27;;;-6.50;99.90;;;;;;2018282;70;25149;-88
2023/12/06 12:10:49;;;;;;;1.40;1.20;;;-6.50;99.90;;;;;;2021735;70;25910;-89
2023/12/06 12:13:43;;;;;;;9.67;4.40;;;-6.40;99.90;;;;;;2024209;70;26472;-89
2023/12/06 12:16:32;;;;;;;11.37;5.10;;;-6.50;99.90;;;;;;2022011;70;25193;-89
2023/12/06 12:19:27;;;;;;;5.17;2.23;;;-6.70;99.90;;;;;;2013975;70;25566;-89
2023/12/06 12:27:59;;;;;;;10.60;4.07;;;-6.40;99.90;;;;;;1948876;72;26708;-89
2023/12/06 12:33:34;;;;;;;5.67;2.53;;;-6.40;99.90;;;;;;1951842;72;26991;-89
2023/12/06 12:49:36;;;;;;;10.93;5.40;;;-6.50;99.90;;;;;;1995092;70;27038;-89
2023/12/06 12:55:21;;;;;;;5.27;3.40;;;-6.40;99.90;;;;;;1953471;72;26976;-89
2023/12/06 13:01:08;;;;;;;10.23;5.13;;;-6.60;99.90;;;;;;1943800;72;26908;-89
2023/12/06 13:03:57;;;;;;;8.00;3.60;;;-6.60;99.90;;;;;;1916067;73;26472;-89
2023/12/06 13:06:46;;;;;;;15.43;7.20;;;-6.60;99.90;;;;;;1924343;73;25246;-89
2023/12/06 13:09:35;;;;;;;5.60;2.47;;;-6.70;99.90;;;;;;1935663;73;26414;-89
2023/12/06 13:16:07;;;;;;;5.87;2.50;;;-6.60;99.90;;;;;;1943661;72;27608;-92
2023/12/06 13:23:08;;;;;;;4.57;2.60;;;-6.80;99.90;;;;;;1923135;74;25925;-92
2023/12/06 13:26:28;;;;;;;3.87;2.30;;;-7.00;99.90;;;;;;1935092;73;25884;-91
2023/12/06 13:29:46;;;;;;;7.60;2.30;;;-7.20;99.90;;;;;;1908258;74;25938;-92
2023/12/06 13:33:03;;;;;;;3.23;2.10;;;-7.20;99.90;;;;;;1935188;73;25881;-92
2023/12/06 13:36:21;;;;;;;7.40;3.50;;;-7.20;99.90;;;;;;1930913;74;25905;-92
2023/12/06 13:43:22;;;;;;;8.10;3.93;;;-7.50;99.90;;;;;;1985644;71;27441;-89
2023/12/06 13:50:05;;;;;;;5.60;2.70;;;-7.40;99.90;;;;;;2019501;70;26670;-89
2023/12/06 13:52:55;;;;;;;4.27;2.70;;;-7.50;99.90;;;;;;2020482;70;25849;-87
2023/12/06 13:55:43;;;;;;;6.80;3.40;;;-7.60;99.90;;;;;;2023529;70;25863;-89
2023/12/06 13:58:32;;;;;;;7.43;3.43;;;-7.60;99.90;;;;;;2028658;70;25840;-89
2023/12/06 14:05:06;;;;;;;6.30;3.27;;;-7.80;99.90;;;;;;1913831;73;27106;-89
2023/12/06 14:07:55;;;;;;;5.07;2.90;;;-8.00;99.90;;;;;;1902938;75;26425;-89
2023/12/06 14:10:43;;;;;;;8.73;3.57;;;-8.00;99.90;;;;;;1891762;75;25875;-89
2023/12/06 14:13:33;;;;;;;5.20;3.03;;;-8.00;99.90;;;;;;1892505;75;25981;-89
2023/12/06 14:16:22;;;;;;;4.57;2.87;;;-8.00;99.90;;;;;;1894477;75;25910;-89
2023/12/06 14:19:11;;;;;;;7.03;3.10;;;-8.20;99.90;;;;;;1895475;75;25936;-89
2023/12/06 14:24:51;;;;;;;12.33;4.70;;;-8.30;99.90;;;;;;1947343;72;26965;-89
2023/12/06 14:27:51;;;;;;;5.43;2.93;;;-8.40;99.90;;;;;;1919194;73;25909;-89
2023/12/06 14:33:26;;;;;;;7.87;3.50;;;-8.60;99.90;;;;;;1951509;72;27042;-89
2023/12/06 14:36:17;;;;;;;6.73;3.60;;;-8.70;99.90;;;;;;1917155;73;26501;-89
2023/12/06 14:39:10;;;;;;;10.13;3.73;;;-8.70;99.90;;;;;;1936723;73;25927;-89
2023/12/06 14:42:02;;;;;;;6.57;3.60;;;-8.70;99.90;;;;;;1946078;73;26014;-86
2023/12/06 14:44:51;;;;;;;6.33;3.20;;;-8.90;99.90;;;;;;1935403;73;25891;-88
2023/12/06 14:51:28;;;;;;;7.50;3.87;;;-8.90;99.90;;;;;;1972554;72;27082;-89
2023/12/06 14:54:18;;;;;;;9.00;3.27;;;-8.90;99.90;;;;;;1994411;72;25835;-88
2023/12/06 14:57:08;;;;;;;7.77;3.30;;;-9.00;99.90;;;;;;2001481;70;25836;-88
2023/12/06 14:59:57;;;;;;;9.77;3.60;;;-9.10;99.90;;;;;;1982121;72;26379;-88
2023/12/06 15:02:46;;;;;;;11.13;3.37;;;-9.20;99.90;;;;;;1989103;72;25873;-88
2023/12/06 15:39:05;;;;;;;6.77;3.30;;;-9.20;99.90;;;;;;1943513;72;26786;-88
2023/12/06 15:42:15;;;;;;;6.20;3.20;;;-9.20;99.90;;;;;;1954203;73;25878;-89
2023/12/06 15:45:04;;;;;;;12.93;5.67;;;-9.20;99.90;;;;;;1938131;73;26374;-89
2023/12/06 16:05:35;;;;;;;8.10;4.00;;;-9.00;99.90;;;;;;1945975;72;27060;-89
2023/12/06 16:08:24;;;;;;;8.10;3.70;;;-8.90;99.90;;;;;;1931336;73;26471;-89
2023/12/06 16:11:13;;;;;;;8.10;3.63;;;-8.90;99.90;;;;;;1922225;73;26457;-88
2023/12/06 16:14:10;;;;;;;8.40;4.43;;;-8.80;99.90;;;;;;1926420;73;26446;-88
2023/12/06 16:16:59;;;;;;;8.93;4.50;;;-8.80;99.90;;;;;;1916499;73;26442;-89
2023/12/06 16:22:54;;;;;;;6.20;3.30;;;-8.80;99.90;;;;;;1992368;71;26982;-89
2023/12/06 16:25:44;;;;;;;6.47;3.47;;;-8.70;99.90;;;;;;1927688;73;26475;-89
2023/12/06 16:31:27;;;;;;;10.97;3.57;;;-9.00;99.90;;;;;;1968931;72;27590;-88
2023/12/06 16:34:15;;;;;;;11.10;5.07;;;-9.10;99.90;;;;;;1906522;74;25772;-89
2023/12/06 16:37:05;;;;;;;7.53;3.73;;;-9.10;99.90;;;;;;1906942;74;25804;-88
2023/12/06 16:39:54;;;;;;;11.17;4.63;;;-9.10;99.90;;;;;;1922325;74;26509;-88
2023/12/06 16:42:43;;;;;;;11.87;5.13;;;-9.10;99.90;;;;;;1904019;75;25977;-88
2023/12/06 16:45:31;;;;;;;15.30;5.50;;;-9.10;99.90;;;;;;1904172;75;26047;-88
2023/12/06 16:52:15;;;;;;;14.97;6.10;;;-9.00;99.90;;;;;;1967556;71;26969;-89
2023/12/06 17:09:34;;;;;;;70.80;16.10;;;-8.90;99.90;;;;;;1930070;73;26318;-89
2023/12/06 17:15:04;;;;;;;19.23;7.23;;;-8.50;99.90;;;;;;1929498;72;27044;-88
2023/12/06 17:17:58;;;;;;;15.03;5.67;;;-8.50;99.90;;;;;;1851762;76;26482;-88
2023/12/06 17:23:52;;;;;;;12.10;4.50;;;-8.50;99.90;;;;;;1959712;72;26899;-89
2023/12/06 17:26:43;;;;;;;13.40;4.27;;;-8.60;99.90;;;;;;1935354;73;25822;-89
2023/12/06 17:29:32;;;;;;;11.93;4.87;;;-8.60;99.90;;;;;;1923843;73;25866;-88
2023/12/06 17:35:12;;;;;;;12.67;4.87;;;-8.70;99.90;;;;;;1949522;72;26878;-88
2023/12/06 17:38:05;;;;;;;7.03;3.10;;;-8.80;99.90;;;;;;1948380;72;25940;-89
2023/12/06 17:40:55;;;;;;;7.40;2.93;;;-8.80;99.90;;;;;;1947677;72;25860;-89
2023/12/06 18:11:27;;;;;;;8.93;4.87;;;-8.80;99.90;;;;;;1974942;71;27905;-88
2023/12/06 18:14:20;;;;;;;7.63;3.50;;;-8.60;99.90;;;;;;1951214;73;25906;-88
2023/12/06 18:17:09;;;;;;;9.67;3.70;;;-8.40;99.90;;;;;;2016565;70;25859;-87
2023/12/06 18:22:46;;;;;;;10.23;3.87;;;-8.60;99.90;;;;;;1956242;71;26798;-89
2023/12/06 18:25:59;;;;;;;15.33;4.93;;;-8.60;99.90;;;;;;1893330;74;25973;-89
2023/12/06 18:31:36;;;;;;;20.17;7.13;;;-8.60;99.90;;;;;;1968721;71;27018;-89
2023/12/06 18:34:26;;;;;;;96.50;20.90;;;-8.50;99.90;;;;;;1942283;73;25891;-88
2023/12/06 18:37:18;;;;;;;17.27;7.60;;;-8.50;99.90;;;;;;1899682;75;25905;-89
2023/12/06 18:40:12;;;;;;;5.77;2.73;;;-8.50;99.90;;;;;;1901153;75;26530;-87
2023/12/06 18:43:02;;;;;;;9.00;2.97;;;-8.60;99.90;;;;;;1903308;75;25879;-88
2023/12/06 18:45:53;;;;;;;7.27;3.20;;;-8.60;99.90;;;;;;1873296;75;25923;-88
2023/12/06 18:48:42;;;;;;;12.77;4.37;;;-8.50;99.90;;;;;;1847970;76;26425;-88
2023/12/06 18:51:35;;;;;;;15.30;7.20;;;-8.30;99.90;;;;;;1934874;73;25926;-87
2023/12/06 18:54:25;;;;;;;10.33;4.43;;;-8.40;99.90;;;;;;1922701;73;25901;-87
2023/12/06 18:57:13;;;;;;;9.57;4.33;;;-8.40;99.90;;;;;;1923751;73;26076;-88
2023/12/06 19:00:04;;;;;;;5.60;3.20;;;-8.50;99.90;;;;;;1909996;73;25906;-88
2023/12/06 19:02:52;;;;;;;7.47;3.20;;;-8.40;99.90;;;;;;1923442;73;26340;-88
2023/12/06 19:08:25;;;;;;;4.67;2.80;;;-8.50;99.90;;;;;;1934300;74;27414;-89
2023/12/06 19:11:16;;;;;;;42.50;9.60;;;-8.60;99.90;;;;;;1906731;75;25965;-89
2023/12/06 19:27:31;;;;;;;9.13;4.13;;;-8.50;99.90;;;;;;1967823;69;27034;-87
2023/12/06 19:33:15;;;;;;;10.20;5.00;;;-8.20;99.90;;;;;;1943451;72;27040;-89
2023/12/06 19:36:25;;;;;;;11.57;5.03;;;-8.10;99.90;;;;;;1925257;73;26050;-88
2023/12/06 19:39:21;;;;;;;13.07;4.80;;;-8.20;99.90;;;;;;1925557;73;25867;-89
2023/12/06 19:42:11;;;;;;;8.93;3.80;;;-8.20;99.90;;;;;;1916365;73;26039;-89
2023/12/06 19:45:00;;;;;;;6.60;3.57;;;-8.30;99.90;;;;;;1934083;73;25966;-89
2023/12/06 20:00:54;;;;;;;8.40;4.70;;;-8.20;99.90;;;;;;1855613;76;27451;-88
2023/12/06 20:07:42;;;;;;;14.20;5.67;;;-8.30;99.90;;;;;;1980804;71;26092;-89
2023/12/06 20:10:28;;;;;;;10.90;4.13;;;-8.20;99.90;;;;;;1974356;72;25898;-88
2023/12/06 20:13:17;;;;;;;9.00;4.13;;;-8.20;99.90;;;;;;2057364;69;25807;-88
2023/12/06 20:16:11;;;;;;;13.93;5.30;;;-8.30;99.90;;;;;;2019891;69;25827;-88
2023/12/06 20:19:00;;;;;;;5.37;2.97;;;-8.20;99.90;;;;;;2023364;70;26020;-89
2023/12/06 20:21:49;;;;;;;5.70;2.43;;;-8.10;99.90;;;;;;2041412;69;25885;-88
2023/12/06 20:24:41;;;;;;;7.97;3.47;;;-8.00;99.90;;;;;;2062470;69;26359;-89
2023/12/06 20:27:29;;;;;;;7.93;3.50;;;-8.00;99.90;;;;;;2061217;69;25902;-88
2023/12/06 20:30:18;;;;;;;7.30;3.37;;;-7.90;99.90;;;;;;2041386;69;25874;-88
2023/12/06 20:33:07;;;;;;;10.30;4.20;;;-7.90;99.90;;;;;;1980838;72;25874;-88
2023/12/06 20:35:55;;;;;;;9.50;3.50;;;-7.90;99.90;;;;;;2048991;69;26348;-88
2023/12/06 20:38:44;;;;;;;7.03;3.23;;;-7.90;99.90;;;;;;1967873;72;25907;-88
2023/12/06 20:41:33;;;;;;;12.90;3.10;;;-7.90;99.90;;;;;;2034143;69;26323;-88
2023/12/06 20:44:22;;;;;;;5.97;3.20;;;-8.00;99.90;;;;;;1992687;71;25942;-88
2023/12/06 20:47:12;;;;;;;4.63;2.90;;;-8.00;99.90;;;;;;2009532;70;26807;-88
2023/12/06 20:53:15;;;;;;;6.13;3.20;;;-8.00;99.90;;;;;;1879914;74;26419;-88
2023/12/06 20:58:57;;;;;;;9.67;4.13;;;-8.10;99.90;;;;;;1947345;72;27630;-89
2023/12/06 21:01:53;;;;;;;10.40;3.50;;;-8.10;99.90;;;;;;1908836;74;25966;-89
2023/12/06 21:04:44;;;;;;;7.27;3.50;;;-8.10;99.90;;;;;;1916416;74;26026;-88
2023/12/06 21:07:37;;;;;;;5.60;3.37;;;-8.10;99.90;;;;;;1930171;73;25933;-89
2023/12/06 21:10:26;;;;;;;11.77;3.80;;;-8.10;99.90;;;;;;1936124;72;25966;-89
2023/12/06 21:13:15;;;;;;;5.43;3.07;;;-8.00;99.90;;;;;;1876937;73;25961;-89
2023/12/06 21:16:09;;;;;;;8.03;3.47;;;-8.00;99.90;;;;;;1900474;73;25889;-88
2023/12/06 21:18:57;;;;;;;5.00;1.90;;;-8.00;99.90;;;;;;1940395;72;26359;-89
2023/12/06 21:22:28;;;;;;;9.33;3.20;;;-8.10;99.90;;;;;;1923553;74;25941;-89
2023/12/06 21:25:16;;;;;;;5.80;3.10;;;-8.20;99.90;;;;;;1931161;74;25945;-88
2023/12/06 21:28:20;;;;;;;7.30;3.33;;;-8.20;99.90;;;;;;1916402;74;26042;-88
2023/12/06 21:31:08;;;;;;;8.30;3.53;;;-8.20;99.90;;;;;;1849660;76;25953;-89
2023/12/06 21:33:58;;;;;;;9.13;4.13;;;-8.20;99.90;;;;;;1928969;73;25990;-89
2023/12/06 21:36:48;;;;;;;11.93;5.33;;;-8.20;99.90;;;;;;1924483;73;25908;-88
2023/12/06 21:42:52;;;;;;;10.10;4.43;;;-8.20;99.90;;;;;;1981104;71;27046;-89
2023/12/06 21:49:52;;;;;;;6.87;3.03;;;-8.10;99.90;;;;;;1834358;75;25927;-88
2023/12/06 21:52:41;;;;;;;9.23;3.67;;;-8.10;99.90;;;;;;1924009;74;25871;-89
2023/12/06 21:55:33;;;;;;;13.27;4.17;;;-8.20;99.90;;;;;;1915535;74;25949;-87
2023/12/06 21:58:22;;;;;;;12.53;4.37;;;-8.30;99.90;;;;;;1908158;74;25907;-88
2023/12/06 22:01:17;;;;;;;7.73;3.57;;;-8.20;99.90;;;;;;1907041;74;25989;-88
2023/12/06 22:04:08;;;;;;;8.43;4.03;;;-8.20;99.90;;;;;;1925711;74;26311;-87
2023/12/06 22:06:56;;;;;;;8.43;3.83;;;-8.20;99.90;;;;;;1920190;74;25871;-88
2023/12/06 22:09:47;;;;;;;8.20;3.50;;;-8.20;99.90;;;;;;1926905;74;25907;-88
2023/12/06 22:12:38;;;;;;;5.70;3.00;;;-8.30;99.90;;;;;;1952936;72;26371;-88
2023/12/06 22:15:28;;;;;;;7.27;3.60;;;-8.40;99.90;;;;;;1966050;72;25874;-90
2023/12/06 22:18:18;;;;;;;5.77;2.90;;;-8.30;99.90;;;;;;1918063;73;25891;-87
2023/12/06 22:26:57;;;;;;;8.50;3.60;;;-8.30;99.90;;;;;;1985826;71;26516;-88
2023/12/06 22:29:45;;;;;;;8.73;3.77;;;-8.20;99.90;;;;;;1930699;73;25983;-89
2023/12/06 22:32:34;;;;;;;7.90;3.27;;;-8.30;99.90;;;;;;2000830;70;25813;-89
2023/12/06 22:35:28;;;;;;;8.20;3.10;;;-8.30;99.90;;;;;;2007806;70;25940;-88
2023/12/06 22:38:23;;;;;;;7.93;3.07;;;-8.30;99.90;;;;;;1998558;70;25926;-88
2023/12/06 22:46:29;;;;;;;9.77;3.43;;;-8.40;99.90;;;;;;1927155;72;26388;-88
2023/12/06 22:49:19;;;;;;;6.20;2.77;;;-8.40;99.90;;;;;;1860002;76;25938;-88
2023/12/06 22:52:09;;;;;;;7.57;3.13;;;-8.40;99.90;;;;;;1859355;75;25870;-89
2023/12/06 22:54:59;;;;;;;6.00;2.60;;;-8.40;99.90;;;;;;1859221;76;27169;-89
2023/12/06 23:01:00;;;;;;;4.70;2.50;;;-8.30;99.90;;;;;;1974390;71;27073;-87